Aérodrome :
LOGIN :

S'inscrire | Disclaimer

   EN    FR    IT 

 










Légende :    VFR   VFR Marginal   IFR   IFR Intensif   IFR Très Intensif
Visi : 
Plafond : 
>= 8 km
>= 3000ft
5 à 8 km
1000 à 3000 ft
1500m à 5 km
500 à 1000 ft
800 à 1500m
200 à 500 ft
< 800m
< 200 ft
Symboles :   Orages  Brouillard  Fortes neiges  Fortes précipitations  Vent > 20 kt
SIGMETs :   Divers  Orages  Givrage  Turbulence  Onde Orograph.  Cendres Volcan.







- Altitude de l'aérodrome : 408 ft
- Code IATA : FKB


EDSB - Karlsruhe Baden Baden

DERNIER METAR :
  • 200420Z 20003KT 9999 BCFG NSC 15/14 Q1014

METARs EXPIRÉS :
  • 200350Z 19001KT 9999 R03/1100D BCFG NSC 15/15 Q1014
  • 200320Z 20004KT 8000 BCFG NSC 15/15 Q1014
  • 200250Z 19003KT CAVOK 15/15 Q1014
  • 200220Z AUTO VRB01KT 5000 // FEW003/// 16/16 Q1014
  • 200150Z AUTO VRB01KT 4800 2100 // NCD 16/16 Q1014

TAF TAF EDSB
Valide du 20 à 04h jusqu'au 21 à 00h UTC


200300Z 2004/2024 VRB03KT CAVOK
BECMG 2006/2008 20005KT
BECMG 2008/2010 20010KT
BECMG 2018/2020 20005KT
PROB30
TEMPO 2021/2024 TSRA SCT050CB
Pas de NOTAMs connus pour ce terrain.



MET'MAP, la Météo Aéronautique d'un coup d'oeil ! - Copyright ORBIFLY Décembre 2007 - Disclaimer

ORBIFLY MET'MAP TEAM :

Programmation & Développement : Alexandra Zaïnal
Conception & Développement : Baudouin d'Aumeries
Co-Programmation & Développement : Marc-Olivier Méhu
Soutien technique & logistique : Manuel Goepfert

Contact : metmap@orbifly.com




SOURCES & CREDITS :

   NOAA